Airfield :







YOU CAN JOIN US ON...

 
LOGIN :

Register | Disclaimer

   EN    FR    IT 

 









Legend :    VFR   Marginal VFR   IFR   Intensive IFR   Very Intensive IFR
Visi :
Ceiling :
>= 8 km
>= 3000ft
5 to 8 km
1000 to 3000 ft
1500m to 5 km
500 to 1000 ft
800 to 1500m
200 to 500 ft
< 800m
< 200 ft
Symbols :   Thunderstorms  Fog  Heavy snow  Heavy precipitations  Wind > 20 kt






- Airport Elevation : 328 ft


KGFL - Floyd Bennett Memorial

CURRENT METAR :
  • 271353Z AUTO 19006KT 10SM OVC090 13/11 A2989 RMK AO2 SLP125 T01330111

EXPIRED METARs :
  • 271253Z AUTO 20005KT 9SM OVC065 12/11 A2990 RMK AO2 RAB1159E15 SLP126 P0000 T01220106
  • 271153Z AUTO 16004KT 10SM OVC060 11/10 A2989 RMK AO2 RAB1059E12B36E48 SLP125 P0000 60000 T01110100 10111 20089 50001

TAF KGFL
Valid from the 27 at 12:00 until the 28 at 12:00 UTC


271125Z 2712/2812 21005KT P6SM BKN070 OVC100
TEMPO 2712/2716 6SM -SHRA
FM271600 20008KT P6SM BKN050 BKN100
FM272300 21005KT P6SM VCSH OVC050
FM280300 22005KT P6SM BKN025 OVC050
PROB30 2803/2809 5SM -SHRA BR BKN015 OVC025
FM280900 VRB03KT 4SM BR OVC015
KZBW FIR / North America



MET'MAP, your aeronautical weather chart ! - Copyright ORBIFLY December 2007 - Disclaimer

ORBIFLY MET'MAP TEAM :

Programming & Development : Alexandra Zaïnal
Concept & original design : Baudouin d'Aumeries
Assistance for programming : Marc-Olivier Méhu
Technical & hardware support : Manuel Goepfert

Contact : metmap@orbifly.com




SOURCES & CREDITS :

   NOAA